sensor_id;sensor_type;location;lat;lon;timestamp;P1;durP1;ratioP1;P2;durP2;ratioP2
32250;SDS011;41295;48.518;9.206;2022-11-20T00:00:26;6.18;;;2.83;;
32250;SDS011;41295;48.518;9.206;2022-11-20T00:02:28;6.07;;;3.20;;
32250;SDS011;41295;48.518;9.206;2022-11-20T00:04:31;4.00;;;2.47;;
32250;SDS011;41295;48.518;9.206;2022-11-20T00:06:33;5.53;;;2.60;;
32250;SDS011;41295;48.518;9.206;2022-11-20T00:08:36;4.10;;;2.65;;
32250;SDS011;41295;48.518;9.206;2022-11-20T00:10:39;4.75;;;2.58;;
32250;SDS011;41295;48.518;9.206;2022-11-20T00:12:44;4.57;;;2.45;;
32250;SDS011;41295;48.518;9.206;2022-11-20T00:14:46;3.95;;;2.50;;
32250;SDS011;41295;48.518;9.206;2022-11-20T00:16:49;6.32;;;2.70;;
32250;SDS011;41295;48.518;9.206;2022-11-20T00:18:51;3.92;;;2.78;;
32250;SDS011;41295;48.518;9.206;2022-11-20T00:20:59;3.65;;;2.40;;
32250;SDS011;41295;48.518;9.206;2022-11-20T00:23:03;5.55;;;2.97;;
32250;SDS011;41295;48.518;9.206;2022-11-20T00:25:08;7.35;;;2.75;;
32250;SDS011;41295;48.518;9.206;2022-11-20T00:27:10;5.90;;;3.30;;
32250;SDS011;41295;48.518;9.206;2022-11-20T00:29:14;6.60;;;3.60;;
32250;SDS011;41295;48.518;9.206;2022-11-20T00:31:17;5.05;;;2.90;;
32250;SDS011;41295;48.518;9.206;2022-11-20T00:33:20;4.50;;;3.10;;
32250;SDS011;41295;48.518;9.206;2022-11-20T00:35:23;6.25;;;3.10;;
32250;SDS011;41295;48.518;9.206;2022-11-20T00:37:25;6.13;;;3.50;;
32250;SDS011;41295;48.518;9.206;2022-11-20T00:39:28;6.88;;;3.75;;
32250;SDS011;41295;48.518;9.206;2022-11-20T00:41:31;8.15;;;3.60;;
32250;SDS011;41295;48.518;9.206;2022-11-20T00:43:34;4.97;;;3.40;;
32250;SDS011;41295;48.518;9.206;2022-11-20T00:45:38;9.32;;;3.78;;
32250;SDS011;41295;48.518;9.206;2022-11-20T00:47:41;4.95;;;3.63;;
32250;SDS011;41295;48.518;9.206;2022-11-20T00:49:44;6.47;;;3.88;;
32250;SDS011;41295;48.518;9.206;2022-11-20T00:51:46;6.68;;;3.67;;
32250;SDS011;41295;48.518;9.206;2022-11-20T00:53:49;8.60;;;4.00;;
32250;SDS011;41295;48.518;9.206;2022-11-20T00:55:52;7.95;;;4.13;;
32250;SDS011;41295;48.518;9.206;2022-11-20T00:57:56;5.88;;;4.03;;
32250;SDS011;41295;48.518;9.206;2022-11-20T01:00:05;8.27;;;4.10;;
32250;SDS011;41295;48.518;9.206;2022-11-20T01:02:09;7.32;;;4.43;;
32250;SDS011;41295;48.518;9.206;2022-11-20T01:04:12;14.57;;;4.13;;
32250;SDS011;41295;48.518;9.206;2022-11-20T01:06:17;6.43;;;3.88;;
32250;SDS011;41295;48.518;9.206;2022-11-20T01:08:22;6.38;;;4.22;;
32250;SDS011;41295;48.518;9.206;2022-11-20T01:10:25;5.32;;;4.10;;
32250;SDS011;41295;48.518;9.206;2022-11-20T01:12:28;6.60;;;4.13;;
32250;SDS011;41295;48.518;9.206;2022-11-20T01:14:30;6.32;;;4.13;;
32250;SDS011;41295;48.518;9.206;2022-11-20T01:16:33;7.60;;;3.80;;
32250;SDS011;41295;48.518;9.206;2022-11-20T01:18:40;6.57;;;4.18;;
32250;SDS011;41295;48.518;9.206;2022-11-20T01:20:44;7.05;;;3.85;;
32250;SDS011;41295;48.518;9.206;2022-11-20T01:22:46;6.57;;;4.38;;
32250;SDS011;41295;48.518;9.206;2022-11-20T01:24:49;6.13;;;4.05;;
32250;SDS011;41295;48.518;9.206;2022-11-20T01:26:51;9.80;;;4.07;;
32250;SDS011;41295;48.518;9.206;2022-11-20T01:28:54;6.05;;;3.58;;
32250;SDS011;41295;48.518;9.206;2022-11-20T01:30:58;8.95;;;4.82;;
32250;SDS011;41295;48.518;9.206;2022-11-20T01:33:02;7.95;;;4.10;;
32250;SDS011;41295;48.518;9.206;2022-11-20T01:35:06;9.13;;;4.25;;
32250;SDS011;41295;48.518;9.206;2022-11-20T01:37:10;6.03;;;4.35;;
32250;SDS011;41295;48.518;9.206;2022-11-20T01:39:14;6.55;;;4.03;;
32250;SDS011;41295;48.518;9.206;2022-11-20T01:41:18;6.05;;;4.07;;
32250;SDS011;41295;48.518;9.206;2022-11-20T01:43:35;6.05;;;3.90;;
32250;SDS011;41295;48.518;9.206;2022-11-20T01:45:45;5.05;;;3.70;;
32250;SDS011;41295;48.518;9.206;2022-11-20T01:47:58;7.80;;;4.45;;
32250;SDS011;41295;48.518;9.206;2022-11-20T01:50:03;6.05;;;4.38;;
32250;SDS011;41295;48.518;9.206;2022-11-20T01:52:15;7.13;;;4.25;;
32250;SDS011;41295;48.518;9.206;2022-11-20T01:54:21;6.55;;;4.05;;
32250;SDS011;41295;48.518;9.206;2022-11-20T01:56:27;6.30;;;4.00;;
32250;SDS011;41295;48.518;9.206;2022-11-20T01:58:33;9.40;;;4.70;;
32250;SDS011;41295;48.518;9.206;2022-11-20T02:00:41;5.18;;;4.28;;
32250;SDS011;41295;48.518;9.206;2022-11-20T02:02:45;8.55;;;4.03;;
32250;SDS011;41295;48.518;9.206;2022-11-20T02:04:51;6.85;;;4.22;;
32250;SDS011;41295;48.518;9.206;2022-11-20T02:07:00;6.78;;;4.38;;
32250;SDS011;41295;48.518;9.206;2022-11-20T02:09:04;9.75;;;5.03;;
32250;SDS011;41295;48.518;9.206;2022-11-20T02:11:07;5.30;;;3.95;;
32250;SDS011;41295;48.518;9.206;2022-11-20T02:13:10;7.28;;;4.53;;
32250;SDS011;41295;48.518;9.206;2022-11-20T02:15:31;7.13;;;4.57;;
32250;SDS011;41295;48.518;9.206;2022-11-20T02:17:35;5.82;;;4.13;;
32250;SDS011;41295;48.518;9.206;2022-11-20T02:19:37;8.27;;;4.53;;
32250;SDS011;41295;48.518;9.206;2022-11-20T02:21:45;11.00;;;4.47;;
32250;SDS011;41295;48.518;9.206;2022-11-20T02:23:57;10.60;;;4.40;;
32250;SDS011;41295;48.518;9.206;2022-11-20T02:26:03;6.05;;;4.47;;
32250;SDS011;41295;48.518;9.206;2022-11-20T02:28:09;6.93;;;4.15;;
32250;SDS011;41295;48.518;9.206;2022-11-20T02:30:12;6.95;;;4.32;;
32250;SDS011;41295;48.518;9.206;2022-11-20T02:32:18;6.60;;;4.40;;
32250;SDS011;41295;48.518;9.206;2022-11-20T02:34:21;8.30;;;4.10;;
32250;SDS011;41295;48.518;9.206;2022-11-20T02:36:24;5.15;;;3.42;;
32250;SDS011;41295;48.518;9.206;2022-11-20T02:38:29;7.93;;;3.85;;
32250;SDS011;41295;48.518;9.206;2022-11-20T02:40:33;7.00;;;4.63;;
32250;SDS011;41295;48.518;9.206;2022-11-20T02:42:36;5.13;;;3.53;;
32250;SDS011;41295;48.518;9.206;2022-11-20T02:44:39;5.32;;;3.70;;
32250;SDS011;41295;48.518;9.206;2022-11-20T02:46:41;7.72;;;4.38;;
32250;SDS011;41295;48.518;9.206;2022-11-20T02:48:44;5.95;;;3.83;;
32250;SDS011;41295;48.518;9.206;2022-11-20T02:50:47;8.45;;;3.47;;
32250;SDS011;41295;48.518;9.206;2022-11-20T02:52:49;5.25;;;3.47;;
32250;SDS011;41295;48.518;9.206;2022-11-20T02:54:52;4.18;;;3.00;;
32250;SDS011;41295;48.518;9.206;2022-11-20T02:56:56;4.53;;;3.10;;
32250;SDS011;41295;48.518;9.206;2022-11-20T02:58:59;4.45;;;2.92;;
32250;SDS011;41295;48.518;9.206;2022-11-20T03:01:01;7.35;;;3.42;;
32250;SDS011;41295;48.518;9.206;2022-11-20T03:03:04;5.05;;;2.63;;
32250;SDS011;41295;48.518;9.206;2022-11-20T03:05:07;5.18;;;3.30;;
32250;SDS011;41295;48.518;9.206;2022-11-20T03:07:09;4.32;;;2.70;;
32250;SDS011;41295;48.518;9.206;2022-11-20T03:09:12;3.70;;;2.70;;
32250;SDS011;41295;48.518;9.206;2022-11-20T03:11:15;6.55;;;3.08;;
32250;SDS011;41295;48.518;9.206;2022-11-20T03:13:19;3.47;;;2.53;;
32250;SDS011;41295;48.518;9.206;2022-11-20T03:15:21;3.50;;;2.28;;
32250;SDS011;41295;48.518;9.206;2022-11-20T03:17:24;3.30;;;2.50;;
32250;SDS011;41295;48.518;9.206;2022-11-20T03:19:27;4.15;;;2.30;;
32250;SDS011;41295;48.518;9.206;2022-11-20T03:21:30;4.10;;;2.45;;
32250;SDS011;41295;48.518;9.206;2022-11-20T03:23:32;2.88;;;2.47;;
32250;SDS011;41295;48.518;9.206;2022-11-20T03:25:36;4.53;;;2.20;;
32250;SDS011;41295;48.518;9.206;2022-11-20T03:27:38;3.90;;;2.28;;
32250;SDS011;41295;48.518;9.206;2022-11-20T03:29:42;6.65;;;2.63;;
32250;SDS011;41295;48.518;9.206;2022-11-20T03:31:45;5.82;;;2.60;;
32250;SDS011;41295;48.518;9.206;2022-11-20T03:33:48;3.70;;;2.38;;
32250;SDS011;41295;48.518;9.206;2022-11-20T03:35:50;2.90;;;2.30;;
32250;SDS011;41295;48.518;9.206;2022-11-20T03:37:53;3.22;;;2.05;;
32250;SDS011;41295;48.518;9.206;2022-11-20T03:39:56;2.22;;;1.98;;
32250;SDS011;41295;48.518;9.206;2022-11-20T03:41:58;3.78;;;2.08;;
32250;SDS011;41295;48.518;9.206;2022-11-20T03:44:02;6.50;;;2.53;;
32250;SDS011;41295;48.518;9.206;2022-11-20T03:46:07;3.80;;;1.92;;
32250;SDS011;41295;48.518;9.206;2022-11-20T03:48:10;5.63;;;2.30;;
32250;SDS011;41295;48.518;9.206;2022-11-20T03:50:13;5.70;;;2.10;;
32250;SDS011;41295;48.518;9.206;2022-11-20T03:52:16;4.20;;;2.05;;
32250;SDS011;41295;48.518;9.206;2022-11-20T03:54:18;5.40;;;2.60;;
32250;SDS011;41295;48.518;9.206;2022-11-20T03:56:22;3.15;;;2.22;;
32250;SDS011;41295;48.518;9.206;2022-11-20T03:58:26;3.92;;;1.90;;
32250;SDS011;41295;48.518;9.206;2022-11-20T04:00:29;4.18;;;2.28;;
32250;SDS011;41295;48.518;9.206;2022-11-20T04:02:33;4.68;;;2.42;;
32250;SDS011;41295;48.518;9.206;2022-11-20T04:04:35;2.38;;;2.17;;
32250;SDS011;41295;48.518;9.206;2022-11-20T04:06:38;3.03;;;1.63;;
32250;SDS011;41295;48.518;9.206;2022-11-20T04:08:41;3.63;;;2.13;;
32250;SDS011;41295;48.518;9.206;2022-11-20T04:10:49;3.25;;;2.00;;
32250;SDS011;41295;48.518;9.206;2022-11-20T04:12:52;2.70;;;2.03;;
32250;SDS011;41295;48.518;9.206;2022-11-20T04:14:55;5.78;;;2.28;;
32250;SDS011;41295;48.518;9.206;2022-11-20T04:16:57;3.20;;;2.03;;
32250;SDS011;41295;48.518;9.206;2022-11-20T04:19:02;3.25;;;1.83;;
32250;SDS011;41295;48.518;9.206;2022-11-20T04:21:06;2.53;;;1.83;;
32250;SDS011;41295;48.518;9.206;2022-11-20T04:23:09;3.38;;;1.70;;
32250;SDS011;41295;48.518;9.206;2022-11-20T04:25:11;8.90;;;2.53;;
32250;SDS011;41295;48.518;9.206;2022-11-20T04:27:14;3.05;;;2.00;;
32250;SDS011;41295;48.518;9.206;2022-11-20T04:29:16;4.55;;;1.88;;
32250;SDS011;41295;48.518;9.206;2022-11-20T04:31:20;2.33;;;1.60;;
32250;SDS011;41295;48.518;9.206;2022-11-20T04:33:24;2.97;;;2.30;;
32250;SDS011;41295;48.518;9.206;2022-11-20T04:35:34;3.15;;;1.98;;
32250;SDS011;41295;48.518;9.206;2022-11-20T04:37:37;4.43;;;2.10;;
32250;SDS011;41295;48.518;9.206;2022-11-20T04:39:40;3.35;;;1.80;;
32250;SDS011;41295;48.518;9.206;2022-11-20T04:41:43;3.45;;;1.95;;
32250;SDS011;41295;48.518;9.206;2022-11-20T04:43:46;2.40;;;1.90;;
32250;SDS011;41295;48.518;9.206;2022-11-20T04:45:50;3.88;;;1.85;;
32250;SDS011;41295;48.518;9.206;2022-11-20T04:47:53;4.47;;;2.10;;
32250;SDS011;41295;48.518;9.206;2022-11-20T04:49:55;4.50;;;1.98;;
32250;SDS011;41295;48.518;9.206;2022-11-20T04:51:59;4.47;;;1.75;;
32250;SDS011;41295;48.518;9.206;2022-11-20T04:54:02;3.00;;;1.80;;
32250;SDS011;41295;48.518;9.206;2022-11-20T04:56:06;2.60;;;1.83;;
32250;SDS011;41295;48.518;9.206;2022-11-20T04:58:10;2.85;;;1.80;;
32250;SDS011;41295;48.518;9.206;2022-11-20T05:00:13;5.07;;;1.88;;
32250;SDS011;41295;48.518;9.206;2022-11-20T05:02:17;2.85;;;1.70;;
32250;SDS011;41295;48.518;9.206;2022-11-20T05:04:19;1.98;;;1.75;;
32250;SDS011;41295;48.518;9.206;2022-11-20T05:06:22;3.03;;;1.80;;
32250;SDS011;41295;48.518;9.206;2022-11-20T05:08:28;2.33;;;1.60;;
32250;SDS011;41295;48.518;9.206;2022-11-20T05:10:31;3.60;;;2.10;;
32250;SDS011;41295;48.518;9.206;2022-11-20T05:12:34;3.67;;;1.73;;
32250;SDS011;41295;48.518;9.206;2022-11-20T05:14:37;2.50;;;1.60;;
32250;SDS011;41295;48.518;9.206;2022-11-20T05:16:40;3.53;;;2.33;;
32250;SDS011;41295;48.518;9.206;2022-11-20T05:18:43;2.85;;;1.75;;
32250;SDS011;41295;48.518;9.206;2022-11-20T05:20:45;2.85;;;1.90;;
32250;SDS011;41295;48.518;9.206;2022-11-20T05:22:48;2.80;;;1.77;;
32250;SDS011;41295;48.518;9.206;2022-11-20T05:24:52;6.57;;;2.33;;
32250;SDS011;41295;48.518;9.206;2022-11-20T05:26:55;3.03;;;2.05;;
32250;SDS011;41295;48.518;9.206;2022-11-20T05:28:57;4.53;;;2.00;;
32250;SDS011;41295;48.518;9.206;2022-11-20T05:31:06;2.15;;;1.88;;
32250;SDS011;41295;48.518;9.206;2022-11-20T05:33:10;3.08;;;1.63;;
32250;SDS011;41295;48.518;9.206;2022-11-20T05:35:12;2.05;;;1.67;;
32250;SDS011;41295;48.518;9.206;2022-11-20T05:37:15;1.95;;;1.55;;
32250;SDS011;41295;48.518;9.206;2022-11-20T05:39:18;4.07;;;1.80;;
32250;SDS011;41295;48.518;9.206;2022-11-20T05:41:22;4.15;;;1.90;;
32250;SDS011;41295;48.518;9.206;2022-11-20T05:43:24;2.33;;;1.90;;
32250;SDS011;41295;48.518;9.206;2022-11-20T05:45:27;6.63;;;2.03;;
32250;SDS011;41295;48.518;9.206;2022-11-20T05:47:31;3.78;;;2.08;;
32250;SDS011;41295;48.518;9.206;2022-11-20T05:49:35;2.88;;;2.20;;
32250;SDS011;41295;48.518;9.206;2022-11-20T05:51:37;4.45;;;2.08;;
32250;SDS011;41295;48.518;9.206;2022-11-20T05:53:40;2.33;;;1.70;;
32250;SDS011;41295;48.518;9.206;2022-11-20T05:55:55;3.90;;;1.95;;
32250;SDS011;41295;48.518;9.206;2022-11-20T05:58:00;2.40;;;1.73;;
32250;SDS011;41295;48.518;9.206;2022-11-20T06:00:02;3.05;;;1.63;;
32250;SDS011;41295;48.518;9.206;2022-11-20T06:02:06;2.85;;;2.10;;
32250;SDS011;41295;48.518;9.206;2022-11-20T06:04:08;4.20;;;2.25;;
32250;SDS011;41295;48.518;9.206;2022-11-20T06:06:11;2.30;;;1.70;;
32250;SDS011;41295;48.518;9.206;2022-11-20T06:08:14;3.50;;;1.85;;
32250;SDS011;41295;48.518;9.206;2022-11-20T06:10:17;3.13;;;1.83;;
32250;SDS011;41295;48.518;9.206;2022-11-20T06:12:20;2.85;;;2.08;;
32250;SDS011;41295;48.518;9.206;2022-11-20T06:14:24;2.70;;;1.50;;
32250;SDS011;41295;48.518;9.206;2022-11-20T06:16:26;3.10;;;1.88;;
32250;SDS011;41295;48.518;9.206;2022-11-20T06:18:29;3.28;;;1.60;;
32250;SDS011;41295;48.518;9.206;2022-11-20T06:20:32;2.97;;;1.88;;
32250;SDS011;41295;48.518;9.206;2022-11-20T06:22:42;3.33;;;1.83;;
32250;SDS011;41295;48.518;9.206;2022-11-20T06:24:45;3.58;;;1.90;;
32250;SDS011;41295;48.518;9.206;2022-11-20T06:26:50;6.53;;;2.15;;
32250;SDS011;41295;48.518;9.206;2022-11-20T06:28:53;3.15;;;1.65;;
32250;SDS011;41295;48.518;9.206;2022-11-20T06:30:58;2.60;;;1.80;;
32250;SDS011;41295;48.518;9.206;2022-11-20T06:33:01;2.45;;;1.90;;
32250;SDS011;41295;48.518;9.206;2022-11-20T06:35:04;4.97;;;2.13;;
32250;SDS011;41295;48.518;9.206;2022-11-20T06:37:07;2.90;;;1.85;;
32250;SDS011;41295;48.518;9.206;2022-11-20T06:39:10;4.25;;;1.98;;
32250;SDS011;41295;48.518;9.206;2022-11-20T06:41:14;3.90;;;1.70;;
32250;SDS011;41295;48.518;9.206;2022-11-20T06:43:17;2.67;;;1.83;;
32250;SDS011;41295;48.518;9.206;2022-11-20T06:45:20;4.28;;;1.70;;
32250;SDS011;41295;48.518;9.206;2022-11-20T06:47:24;3.60;;;1.90;;
32250;SDS011;41295;48.518;9.206;2022-11-20T06:49:27;3.83;;;1.80;;
32250;SDS011;41295;48.518;9.206;2022-11-20T06:51:29;2.25;;;1.92;;
32250;SDS011;41295;48.518;9.206;2022-11-20T06:53:32;3.50;;;2.17;;
32250;SDS011;41295;48.518;9.206;2022-11-20T06:55:35;2.85;;;2.00;;
32250;SDS011;41295;48.518;9.206;2022-11-20T06:57:38;3.35;;;1.92;;
32250;SDS011;41295;48.518;9.206;2022-11-20T06:59:41;3.28;;;1.77;;
32250;SDS011;41295;48.518;9.206;2022-11-20T07:01:43;2.20;;;1.77;;
32250;SDS011;41295;48.518;9.206;2022-11-20T07:03:49;3.63;;;1.80;;
32250;SDS011;41295;48.518;9.206;2022-11-20T07:05:54;5.10;;;2.10;;
32250;SDS011;41295;48.518;9.206;2022-11-20T07:07:58;4.30;;;1.90;;
32250;SDS011;41295;48.518;9.206;2022-11-20T07:10:01;2.33;;;1.98;;
32250;SDS011;41295;48.518;9.206;2022-11-20T07:12:04;3.47;;;2.10;;
32250;SDS011;41295;48.518;9.206;2022-11-20T07:14:07;3.58;;;1.90;;
32250;SDS011;41295;48.518;9.206;2022-11-20T07:16:09;5.25;;;2.13;;
32250;SDS011;41295;48.518;9.206;2022-11-20T07:18:12;8.70;;;2.22;;
32250;SDS011;41295;48.518;9.206;2022-11-20T07:20:16;3.85;;;2.30;;
32250;SDS011;41295;48.518;9.206;2022-11-20T07:22:19;2.13;;;1.92;;
32250;SDS011;41295;48.518;9.206;2022-11-20T07:24:22;5.40;;;2.40;;
32250;SDS011;41295;48.518;9.206;2022-11-20T07:26:25;4.63;;;1.80;;
32250;SDS011;41295;48.518;9.206;2022-11-20T07:28:28;4.43;;;2.10;;
32250;SDS011;41295;48.518;9.206;2022-11-20T07:30:30;2.85;;;2.03;;
32250;SDS011;41295;48.518;9.206;2022-11-20T07:32:33;2.00;;;1.40;;
32250;SDS011;41295;48.518;9.206;2022-11-20T07:34:36;3.50;;;2.25;;
32250;SDS011;41295;48.518;9.206;2022-11-20T07:36:40;2.22;;;1.80;;
32250;SDS011;41295;48.518;9.206;2022-11-20T07:38:42;4.18;;;2.30;;
32250;SDS011;41295;48.518;9.206;2022-11-20T07:40:45;3.00;;;2.10;;
32250;SDS011;41295;48.518;9.206;2022-11-20T07:42:48;2.83;;;1.83;;
32250;SDS011;41295;48.518;9.206;2022-11-20T07:44:51;3.58;;;1.90;;
32250;SDS011;41295;48.518;9.206;2022-11-20T07:46:54;4.80;;;1.80;;
32250;SDS011;41295;48.518;9.206;2022-11-20T07:48:56;3.20;;;1.77;;
32250;SDS011;41295;48.518;9.206;2022-11-20T07:50:59;3.42;;;1.65;;
32250;SDS011;41295;48.518;9.206;2022-11-20T07:53:03;4.78;;;2.13;;
32250;SDS011;41295;48.518;9.206;2022-11-20T07:55:07;2.42;;;1.70;;
32250;SDS011;41295;48.518;9.206;2022-11-20T07:57:11;2.40;;;1.70;;
32250;SDS011;41295;48.518;9.206;2022-11-20T07:59:13;3.97;;;2.08;;
32250;SDS011;41295;48.518;9.206;2022-11-20T08:01:16;2.30;;;1.90;;
32250;SDS011;41295;48.518;9.206;2022-11-20T08:03:19;3.08;;;1.70;;
32250;SDS011;41295;48.518;9.206;2022-11-20T08:05:26;3.38;;;2.00;;
32250;SDS011;41295;48.518;9.206;2022-11-20T08:07:28;3.70;;;2.05;;
32250;SDS011;41295;48.518;9.206;2022-11-20T08:09:32;2.63;;;1.70;;
32250;SDS011;41295;48.518;9.206;2022-11-20T08:11:35;2.28;;;1.67;;
32250;SDS011;41295;48.518;9.206;2022-11-20T08:13:55;3.65;;;1.52;;
32250;SDS011;41295;48.518;9.206;2022-11-20T08:16:13;3.47;;;1.92;;
32250;SDS011;41295;48.518;9.206;2022-11-20T08:18:16;3.13;;;2.00;;
32250;SDS011;41295;48.518;9.206;2022-11-20T08:20:35;2.53;;;1.73;;
32250;SDS011;41295;48.518;9.206;2022-11-20T08:22:37;2.28;;;1.73;;
32250;SDS011;41295;48.518;9.206;2022-11-20T08:24:41;3.20;;;1.75;;
32250;SDS011;41295;48.518;9.206;2022-11-20T08:26:44;3.03;;;1.88;;
32250;SDS011;41295;48.518;9.206;2022-11-20T08:28:46;3.83;;;1.88;;
32250;SDS011;41295;48.518;9.206;2022-11-20T08:30:49;3.05;;;1.67;;
32250;SDS011;41295;48.518;9.206;2022-11-20T08:32:52;3.97;;;1.67;;
32250;SDS011;41295;48.518;9.206;2022-11-20T08:34:55;4.03;;;1.50;;
32250;SDS011;41295;48.518;9.206;2022-11-20T08:36:57;4.30;;;1.70;;
32250;SDS011;41295;48.518;9.206;2022-11-20T08:39:00;6.28;;;1.60;;
32250;SDS011;41295;48.518;9.206;2022-11-20T08:41:05;2.33;;;1.42;;
32250;SDS011;41295;48.518;9.206;2022-11-20T08:43:26;1.85;;;1.55;;
32250;SDS011;41295;48.518;9.206;2022-11-20T08:45:29;2.30;;;1.35;;
32250;SDS011;41295;48.518;9.206;2022-11-20T08:47:35;3.33;;;1.92;;
32250;SDS011;41295;48.518;9.206;2022-11-20T08:49:37;3.92;;;2.10;;
32250;SDS011;41295;48.518;9.206;2022-11-20T08:51:40;3.25;;;1.73;;
32250;SDS011;41295;48.518;9.206;2022-11-20T08:53:44;3.80;;;1.83;;
32250;SDS011;41295;48.518;9.206;2022-11-20T08:55:46;2.60;;;1.80;;
32250;SDS011;41295;48.518;9.206;2022-11-20T08:57:51;3.63;;;1.70;;
32250;SDS011;41295;48.518;9.206;2022-11-20T08:59:53;2.88;;;1.45;;
32250;SDS011;41295;48.518;9.206;2022-11-20T09:02:07;1.95;;;1.52;;
32250;SDS011;41295;48.518;9.206;2022-11-20T09:04:10;2.40;;;1.83;;
32250;SDS011;41295;48.518;9.206;2022-11-20T09:06:12;3.35;;;1.88;;
32250;SDS011;41295;48.518;9.206;2022-11-20T09:08:16;2.30;;;1.58;;
32250;SDS011;41295;48.518;9.206;2022-11-20T09:10:19;3.33;;;1.90;;
32250;SDS011;41295;48.518;9.206;2022-11-20T09:12:25;2.25;;;1.67;;
32250;SDS011;41295;48.518;9.206;2022-11-20T09:14:29;2.53;;;1.52;;
32250;SDS011;41295;48.518;9.206;2022-11-20T09:16:32;4.18;;;2.08;;
32250;SDS011;41295;48.518;9.206;2022-11-20T09:18:35;2.97;;;1.65;;
32250;SDS011;41295;48.518;9.206;2022-11-20T09:20:38;1.90;;;1.73;;
32250;SDS011;41295;48.518;9.206;2022-11-20T09:22:41;2.67;;;1.77;;
32250;SDS011;41295;48.518;9.206;2022-11-20T09:24:43;2.83;;;1.70;;
32250;SDS011;41295;48.518;9.206;2022-11-20T09:26:46;1.90;;;1.55;;
32250;SDS011;41295;48.518;9.206;2022-11-20T09:28:49;1.98;;;1.60;;
32250;SDS011;41295;48.518;9.206;2022-11-20T09:30:59;2.40;;;1.60;;
32250;SDS011;41295;48.518;9.206;2022-11-20T09:33:03;2.10;;;1.48;;
32250;SDS011;41295;48.518;9.206;2022-11-20T09:35:06;3.25;;;1.60;;
32250;SDS011;41295;48.518;9.206;2022-11-20T09:37:10;3.65;;;1.52;;
32250;SDS011;41295;48.518;9.206;2022-11-20T09:39:13;2.30;;;1.23;;
32250;SDS011;41295;48.518;9.206;2022-11-20T09:41:21;4.07;;;1.80;;
32250;SDS011;41295;48.518;9.206;2022-11-20T09:43:42;3.42;;;1.60;;
32250;SDS011;41295;48.518;9.206;2022-11-20T09:45:55;3.10;;;1.55;;
32250;SDS011;41295;48.518;9.206;2022-11-20T09:48:26;1.50;;;1.40;;
32250;SDS011;41295;48.518;9.206;2022-11-20T09:50:40;5.18;;;1.77;;
32250;SDS011;41295;48.518;9.206;2022-11-20T09:52:50;3.50;;;1.52;;
32250;SDS011;41295;48.518;9.206;2022-11-20T09:55:06;2.28;;;1.65;;
32250;SDS011;41295;48.518;9.206;2022-11-20T09:57:13;2.60;;;1.63;;
32250;SDS011;41295;48.518;9.206;2022-11-20T09:59:25;2.72;;;1.40;;
32250;SDS011;41295;48.518;9.206;2022-11-20T10:01:36;2.40;;;1.65;;
32250;SDS011;41295;48.518;9.206;2022-11-20T10:03:45;2.17;;;1.63;;
32250;SDS011;41295;48.518;9.206;2022-11-20T10:08:00;2.45;;;1.38;;
32250;SDS011;41295;48.518;9.206;2022-11-20T10:10:15;2.22;;;1.48;;
32250;SDS011;41295;48.518;9.206;2022-11-20T10:12:21;2.47;;;1.50;;
32250;SDS011;41295;48.518;9.206;2022-11-20T10:14:30;2.97;;;1.73;;
32250;SDS011;41295;48.518;9.206;2022-11-20T10:16:43;2.47;;;1.60;;
32250;SDS011;41295;48.518;9.206;2022-11-20T10:19:00;2.55;;;1.80;;
32250;SDS011;41295;48.518;9.206;2022-11-20T10:21:15;4.90;;;2.30;;
32250;SDS011;41295;48.518;9.206;2022-11-20T10:23:32;3.13;;;1.70;;
32250;SDS011;41295;48.518;9.206;2022-11-20T10:25:49;1.42;;;1.25;;
32250;SDS011;41295;48.518;9.206;2022-11-20T10:28:05;3.47;;;1.50;;
32250;SDS011;41295;48.518;9.206;2022-11-20T10:30:18;2.83;;;1.48;;
32250;SDS011;41295;48.518;9.206;2022-11-20T10:32:25;1.30;;;1.20;;
32250;SDS011;41295;48.518;9.206;2022-11-20T10:34:45;1.67;;;1.40;;
32250;SDS011;41295;48.518;9.206;2022-11-20T10:36:52;1.63;;;1.33;;
32250;SDS011;41295;48.518;9.206;2022-11-20T10:38:59;2.05;;;1.42;;
32250;SDS011;41295;48.518;9.206;2022-11-20T10:41:06;1.42;;;1.20;;
32250;SDS011;41295;48.518;9.206;2022-11-20T10:43:34;1.63;;;1.10;;
32250;SDS011;41295;48.518;9.206;2022-11-20T10:45:44;1.70;;;1.20;;
32250;SDS011;41295;48.518;9.206;2022-11-20T10:47:54;3.00;;;1.15;;
32250;SDS011;41295;48.518;9.206;2022-11-20T10:50:01;1.52;;;1.20;;
32250;SDS011;41295;48.518;9.206;2022-11-20T10:52:09;4.47;;;1.20;;
32250;SDS011;41295;48.518;9.206;2022-11-20T10:54:19;2.00;;;1.27;;
32250;SDS011;41295;48.518;9.206;2022-11-20T10:56:31;1.67;;;1.40;;
32250;SDS011;41295;48.518;9.206;2022-11-20T10:58:40;2.38;;;1.35;;
32250;SDS011;41295;48.518;9.206;2022-11-20T11:00:48;1.23;;;1.13;;
32250;SDS011;41295;48.518;9.206;2022-11-20T11:02:51;1.75;;;1.20;;
32250;SDS011;41295;48.518;9.206;2022-11-20T11:04:58;2.10;;;1.50;;
32250;SDS011;41295;48.518;9.206;2022-11-20T11:07:16;1.85;;;1.38;;
32250;SDS011;41295;48.518;9.206;2022-11-20T11:09:24;2.42;;;1.40;;
32250;SDS011;41295;48.518;9.206;2022-11-20T11:11:34;2.53;;;1.48;;
32250;SDS011;41295;48.518;9.206;2022-11-20T11:13:37;2.63;;;1.50;;
32250;SDS011;41295;48.518;9.206;2022-11-20T11:15:40;1.70;;;1.30;;
32250;SDS011;41295;48.518;9.206;2022-11-20T11:17:46;2.22;;;1.20;;
32250;SDS011;41295;48.518;9.206;2022-11-20T11:20:00;2.05;;;1.10;;
32250;SDS011;41295;48.518;9.206;2022-11-20T11:22:05;4.30;;;1.30;;
32250;SDS011;41295;48.518;9.206;2022-11-20T11:24:19;2.10;;;1.20;;
32250;SDS011;41295;48.518;9.206;2022-11-20T11:26:50;1.55;;;1.23;;
32250;SDS011;41295;48.518;9.206;2022-11-20T11:28:55;1.48;;;1.20;;
32250;SDS011;41295;48.518;9.206;2022-11-20T11:30:58;2.17;;;1.30;;
32250;SDS011;41295;48.518;9.206;2022-11-20T11:33:05;1.95;;;1.30;;
32250;SDS011;41295;48.518;9.206;2022-11-20T11:35:20;1.60;;;1.30;;
32250;SDS011;41295;48.518;9.206;2022-11-20T11:37:32;1.80;;;1.30;;
32250;SDS011;41295;48.518;9.206;2022-11-20T11:39:36;1.90;;;1.30;;
32250;SDS011;41295;48.518;9.206;2022-11-20T11:41:44;2.53;;;1.10;;
32250;SDS011;41295;48.518;9.206;2022-11-20T11:43:50;1.35;;;0.98;;
32250;SDS011;41295;48.518;9.206;2022-11-20T11:46:21;2.58;;;1.20;;
32250;SDS011;41295;48.518;9.206;2022-11-20T11:48:29;2.33;;;1.20;;
32250;SDS011;41295;48.518;9.206;2022-11-20T11:50:33;1.83;;;1.30;;
32250;SDS011;41295;48.518;9.206;2022-11-20T11:52:36;2.67;;;1.30;;
32250;SDS011;41295;48.518;9.206;2022-11-20T11:54:48;3.50;;;1.50;;
32250;SDS011;41295;48.518;9.206;2022-11-20T11:56:54;2.45;;;1.20;;
32250;SDS011;41295;48.518;9.206;2022-11-20T11:59:01;2.28;;;1.13;;
32250;SDS011;41295;48.518;9.206;2022-11-20T12:01:17;3.45;;;1.10;;
32250;SDS011;41295;48.518;9.206;2022-11-20T12:03:29;1.27;;;1.00;;
32250;SDS011;41295;48.518;9.206;2022-11-20T12:05:41;1.77;;;1.48;;
32250;SDS011;41295;48.518;9.206;2022-11-20T12:07:47;3.10;;;1.30;;
32250;SDS011;41295;48.518;9.206;2022-11-20T12:09:55;1.42;;;1.15;;
32250;SDS011;41295;48.518;9.206;2022-11-20T12:12:02;1.50;;;1.02;;
32250;SDS011;41295;48.518;9.206;2022-11-20T12:14:11;1.65;;;1.15;;
32250;SDS011;41295;48.518;9.206;2022-11-20T12:16:20;2.40;;;1.40;;
32250;SDS011;41295;48.518;9.206;2022-11-20T12:18:23;2.75;;;1.85;;
32250;SDS011;41295;48.518;9.206;2022-11-20T12:20:28;2.85;;;1.50;;
32250;SDS011;41295;48.518;9.206;2022-11-20T12:24:50;2.65;;;1.60;;
32250;SDS011;41295;48.518;9.206;2022-11-20T12:27:00;3.85;;;1.33;;
32250;SDS011;41295;48.518;9.206;2022-11-20T12:29:18;6.20;;;1.65;;
32250;SDS011;41295;48.518;9.206;2022-11-20T12:31:31;1.83;;;1.25;;
32250;SDS011;41295;48.518;9.206;2022-11-20T12:33:53;3.15;;;1.25;;
32250;SDS011;41295;48.518;9.206;2022-11-20T12:36:06;4.03;;;1.83;;
32250;SDS011;41295;48.518;9.206;2022-11-20T12:38:30;2.53;;;1.45;;
32250;SDS011;41295;48.518;9.206;2022-11-20T12:40:49;4.68;;;1.50;;